Time;durP1;ratioP1;P1;durP2;ratioP2;P2;SDS_P1;SDS_P2;PMS_P1;PMS_P2;Temp;Humidity;BMP_temperature;BMP_pressure;BME280_temperature;BME280_humidity;BME280_pressure;Samples;Min_cycle;Max_cycle;Signal;HPM_P1;HPM_P2
2022/05/15 00:02:09;;;;;;;4.80;2.85;;;17.20;63.30;;;;;;5009250;28;20229;-65
2022/05/15 00:04:40;;;;;;;7.78;3.08;;;17.20;63.40;;;;;;5009705;28;20641;-61
2022/05/15 00:07:10;;;;;;;5.50;2.60;;;17.20;63.40;;;;;;5008654;28;20259;-62
2022/05/15 00:09:43;;;;;;;6.32;2.20;;;17.20;63.60;;;;;;5009187;28;20212;-62
2022/05/15 00:12:16;;;;;;;5.65;2.70;;;17.20;63.60;;;;;;5009324;28;20689;-62
2022/05/15 00:14:48;;;;;;;6.55;3.38;;;17.20;63.60;;;;;;5009152;28;20197;-62
2022/05/15 00:17:19;;;;;;;11.13;3.83;;;17.20;63.60;;;;;;5008340;28;20266;-61
2022/05/15 00:19:52;;;;;;;8.98;5.90;;;17.20;63.60;;;;;;5009018;28;20303;-62
2022/05/15 00:22:24;;;;;;;9.38;4.63;;;17.20;63.70;;;;;;5008596;28;20212;-62
2022/05/15 00:24:55;;;;;;;8.63;3.70;;;17.20;63.80;;;;;;5007851;28;20205;-62
2022/05/15 00:27:25;;;;;;;9.65;3.90;;;17.20;63.90;;;;;;5008308;28;20196;-55
2022/05/15 00:29:58;;;;;;;8.25;4.80;;;17.20;63.90;;;;;;5007544;28;20291;-58
2022/05/15 00:32:28;;;;;;;5.65;3.90;;;17.10;64.10;;;;;;5007745;28;20248;-57
2022/05/15 00:34:59;;;;;;;10.63;6.95;;;17.10;64.20;;;;;;5007980;28;20645;-56
2022/05/15 00:37:29;;;;;;;11.18;6.55;;;17.00;64.40;;;;;;5005744;28;20288;-50
2022/05/15 00:40:00;;;;;;;55.05;10.23;;;17.00;64.70;;;;;;5007486;28;20245;-57
2022/05/15 00:42:30;;;;;;;23.35;6.95;;;16.90;64.80;;;;;;5008182;28;20201;-56
2022/05/15 00:45:03;;;;;;;35.45;16.85;;;16.90;65.10;;;;;;5008079;28;20189;-54
2022/05/15 00:47:34;;;;;;;17.20;7.50;;;16.80;65.30;;;;;;5006828;28;20263;-58
2022/05/15 00:50:07;;;;;;;11.43;6.00;;;16.80;65.50;;;;;;5007953;28;20298;-60
2022/05/15 00:52:40;;;;;;;6.03;3.08;;;16.80;65.60;;;;;;5007718;28;20224;-57
2022/05/15 00:55:15;;;;;;;5.78;3.30;;;16.80;65.80;;;;;;5006517;28;20189;-56
2022/05/15 00:57:49;;;;;;;4.90;3.30;;;16.80;65.90;;;;;;5008170;28;20247;-54
2022/05/15 01:00:25;;;;;;;4.68;2.53;;;16.70;65.90;;;;;;5008153;28;20584;-51
2022/05/15 01:03:02;;;;;;;6.25;2.42;;;16.80;66.20;;;;;;5009024;28;20193;-52
2022/05/15 01:05:33;;;;;;;3.70;1.85;;;16.70;66.10;;;;;;5008682;28;20201;-52
2022/05/15 01:08:04;;;;;;;5.30;2.75;;;16.70;66.20;;;;;;5008353;28;20668;-51
2022/05/15 01:10:36;;;;;;;5.10;1.60;;;16.60;66.20;;;;;;5008902;28;20209;-53
2022/05/15 01:13:07;;;;;;;2.63;1.38;;;16.60;66.10;;;;;;5008248;28;20213;-53
2022/05/15 01:15:39;;;;;;;3.53;1.70;;;16.60;66.20;;;;;;5008619;28;20644;-55
2022/05/15 01:18:10;;;;;;;3.88;1.48;;;16.60;66.40;;;;;;5008657;28;20204;-52
2022/05/15 01:20:42;;;;;;;6.68;3.22;;;16.50;66.40;;;;;;5008480;28;20213;-56
2022/05/15 01:23:15;;;;;;;5.25;3.45;;;16.50;66.50;;;;;;5007713;28;20193;-53
2022/05/15 01:25:46;;;;;;;8.68;4.78;;;16.50;66.70;;;;;;5006301;28;20216;-57
2022/05/15 01:28:19;;;;;;;11.55;8.68;;;16.40;66.80;;;;;;5010829;28;20193;-56
2022/05/15 01:30:52;;;;;;;17.55;11.45;;;16.40;66.90;;;;;;5011864;28;20301;-57
2022/05/15 01:33:23;;;;;;;9.63;8.10;;;16.40;67.10;;;;;;5011936;28;20295;-54
2022/05/15 01:35:54;;;;;;;9.65;7.63;;;16.40;67.40;;;;;;5011587;28;20226;-57
2022/05/15 01:38:26;;;;;;;9.68;6.20;;;16.30;67.50;;;;;;5012127;28;20689;-58
2022/05/15 01:40:56;;;;;;;8.77;5.85;;;16.30;67.60;;;;;;5012800;28;20217;-57
2022/05/15 01:43:27;;;;;;;9.07;5.45;;;16.30;67.70;;;;;;5012657;28;20248;-55
2022/05/15 01:45:58;;;;;;;12.73;6.82;;;16.30;67.80;;;;;;5012852;28;20239;-52
2022/05/15 01:48:29;;;;;;;9.95;5.70;;;16.30;67.80;;;;;;5007162;28;20200;-50
2022/05/15 01:51:00;;;;;;;9.55;5.55;;;16.20;67.80;;;;;;5011379;28;20213;-56
2022/05/15 01:53:33;;;;;;;8.52;6.30;;;16.20;67.90;;;;;;5011572;28;20221;-51
2022/05/15 01:56:04;;;;;;;16.92;13.43;;;16.20;68.00;;;;;;5010264;28;20200;-53
2022/05/15 01:58:35;;;;;;;18.70;13.07;;;16.20;68.10;;;;;;5012218;28;20677;-54
2022/05/15 02:01:07;;;;;;;15.13;10.65;;;16.20;68.20;;;;;;5012499;28;20286;-54
2022/05/15 02:03:38;;;;;;;16.30;12.40;;;16.20;68.30;;;;;;5011592;28;20193;-51
2022/05/15 02:06:09;;;;;;;21.92;15.93;;;16.20;68.40;;;;;;5010171;28;20201;-53
2022/05/15 02:08:41;;;;;;;19.98;15.75;;;16.20;68.50;;;;;;5011836;28;20212;-49
2022/05/15 02:11:12;;;;;;;22.00;14.98;;;16.20;68.50;;;;;;5010075;28;20304;-58
2022/05/15 02:13:42;;;;;;;30.90;25.27;;;16.10;68.60;;;;;;5010806;28;20319;-57
2022/05/15 02:16:13;;;;;;;21.67;19.38;;;16.10;68.70;;;;;;5009984;28;20275;-52
2022/05/15 02:18:43;;;;;;;23.10;19.67;;;16.10;68.90;;;;;;5009826;28;20279;-58
2022/05/15 02:21:14;;;;;;;36.20;31.63;;;16.10;69.10;;;;;;5009022;28;20212;-55
2022/05/15 02:23:46;;;;;;;32.65;26.50;;;16.10;69.10;;;;;;5010850;28;20199;-55
2022/05/15 02:26:17;;;;;;;20.45;17.58;;;16.10;69.30;;;;;;5010237;28;20627;-52
2022/05/15 02:28:48;;;;;;;23.10;19.80;;;16.10;69.30;;;;;;5010863;28;20221;-57
2022/05/15 02:31:18;;;;;;;27.08;20.80;;;16.10;69.40;;;;;;5010807;28;20228;-57
2022/05/15 02:33:49;;;;;;;49.83;36.92;;;16.10;69.50;;;;;;5011132;28;20252;-53
2022/05/15 02:36:19;;;;;;;24.38;19.30;;;16.10;69.70;;;;;;5011639;28;20204;-54
2022/05/15 02:38:52;;;;;;;24.90;17.83;;;16.10;69.60;;;;;;5010544;28;20253;-55
2022/05/15 02:41:22;;;;;;;21.95;17.38;;;16.10;69.70;;;;;;5010933;28;20193;-55
2022/05/15 02:43:53;;;;;;;18.52;14.32;;;16.10;69.70;;;;;;5010159;28;20197;-57
2022/05/15 02:46:23;;;;;;;14.48;10.70;;;16.10;69.90;;;;;;5007855;28;21419;-55
2022/05/15 02:51:40;;;;;;;30.83;25.15;;;16.10;70.00;;;;;;5010214;28;20327;-53
2022/05/15 02:54:13;;;;;;;15.70;14.00;;;16.10;70.00;;;;;;5010260;28;20587;-58
2022/05/15 02:56:44;;;;;;;6.93;6.22;;;16.10;70.00;;;;;;5010726;28;20205;-55
2022/05/15 02:59:14;;;;;;;4.82;3.90;;;16.10;70.00;;;;;;5010691;28;20317;-57
2022/05/15 03:01:45;;;;;;;14.10;12.70;;;16.10;69.90;;;;;;5010889;28;20193;-54
2022/05/15 03:04:15;;;;;;;17.90;16.10;;;16.10;69.90;;;;;;5010769;28;20229;-57
2022/05/15 03:06:46;;;;;;;17.40;15.80;;;16.10;70.00;;;;;;5010930;28;20645;-55
2022/05/15 03:09:18;;;;;;;22.33;16.55;;;16.20;70.10;;;;;;5010308;28;20221;-55
2022/05/15 03:11:49;;;;;;;40.13;35.00;;;16.10;70.10;;;;;;5010614;28;20850;-56
2022/05/15 03:14:19;;;;;;;31.80;28.50;;;16.10;70.00;;;;;;5010860;28;20303;-57
2022/05/15 03:16:50;;;;;;;21.65;18.25;;;16.10;70.10;;;;;;5009872;28;20257;-52
2022/05/15 03:19:20;;;;;;;18.38;14.73;;;16.10;70.20;;;;;;5010327;28;20294;-55
2022/05/15 03:21:54;;;;;;;9.10;7.10;;;16.10;70.20;;;;;;5009476;28;20197;-57
2022/05/15 03:24:26;;;;;;;5.30;3.55;;;16.10;70.90;;;;;;5009708;28;20247;-55
2022/05/15 03:26:58;;;;;;;2.55;1.85;;;16.10;70.20;;;;;;5010443;28;20193;-59
2022/05/15 03:29:29;;;;;;;2.40;2.13;;;16.10;70.20;;;;;;5010415;28;20223;-57
2022/05/15 03:32:00;;;;;;;2.38;2.13;;;16.10;70.30;;;;;;5009982;28;20209;-54
2022/05/15 03:34:30;;;;;;;3.00;2.50;;;16.10;70.30;;;;;;5010162;28;20220;-57
2022/05/15 03:37:01;;;;;;;3.72;2.05;;;16.10;70.40;;;;;;5010021;28;20193;-54
2022/05/15 03:39:33;;;;;;;3.30;3.00;;;16.10;70.50;;;;;;5009907;28;20294;-55
2022/05/15 03:42:04;;;;;;;3.60;3.30;;;16.10;70.70;;;;;;5008286;28;20220;-56
2022/05/15 03:44:37;;;;;;;4.53;4.13;;;16.00;70.70;;;;;;5008689;28;20188;-56
2022/05/15 03:47:08;;;;;;;5.15;3.60;;;16.10;70.80;;;;;;5009716;28;20279;-53
2022/05/15 03:49:38;;;;;;;3.92;3.20;;;16.00;70.80;;;;;;5009549;28;20232;-57
2022/05/15 03:52:09;;;;;;;3.15;2.85;;;16.00;70.90;;;;;;5009137;28;20201;-54
2022/05/15 03:54:42;;;;;;;2.60;2.30;;;16.00;70.90;;;;;;5009861;28;20287;-57
2022/05/15 03:57:12;;;;;;;2.90;2.47;;;16.00;71.10;;;;;;5008812;28;20219;-57
2022/05/15 03:59:44;;;;;;;4.07;2.58;;;16.00;71.10;;;;;;5008495;28;20209;-58
2022/05/15 04:02:15;;;;;;;2.90;2.50;;;16.00;71.60;;;;;;5008855;28;20224;-57
2022/05/15 04:04:46;;;;;;;2.83;2.30;;;16.00;70.50;;;;;;5010019;28;20224;-57
2022/05/15 04:07:17;;;;;;;2.33;2.13;;;16.00;70.40;;;;;;5008933;28;20243;-58
2022/05/15 04:09:51;;;;;;;2.95;2.35;;;16.10;70.30;;;;;;5009394;28;20294;-58
2022/05/15 04:12:22;;;;;;;2.38;2.17;;;16.10;70.20;;;;;;5009035;28;20228;-57
2022/05/15 04:14:52;;;;;;;2.50;2.30;;;16.10;70.00;;;;;;5009123;28;20382;-57
2022/05/15 04:17:23;;;;;;;2.53;2.13;;;16.10;69.80;;;;;;5009502;28;20216;-57
2022/05/15 04:19:53;;;;;;;2.53;2.33;;;16.20;69.70;;;;;;5008768;28;20228;-57
2022/05/15 04:22:24;;;;;;;2.92;2.50;;;16.20;69.60;;;;;;5020280;22;20185;-58
2022/05/15 04:24:56;;;;;;;2.80;2.50;;;16.20;69.80;;;;;;4998654;28;20201;-53
2022/05/15 04:27:27;;;;;;;15.13;12.30;;;16.20;69.80;;;;;;4991498;28;20197;-56
2022/05/15 04:29:57;;;;;;;23.20;21.05;;;16.30;69.80;;;;;;4989765;28;20225;-58
2022/05/15 04:32:28;;;;;;;16.73;15.05;;;16.30;70.00;;;;;;4991356;28;20260;-53
2022/05/15 04:34:58;;;;;;;17.58;16.02;;;16.30;69.90;;;;;;4991108;28;20731;-59
2022/05/15 04:37:29;;;;;;;18.27;16.58;;;16.30;69.80;;;;;;4990579;28;20257;-59
2022/05/15 04:40:01;;;;;;;16.10;14.60;;;16.30;69.70;;;;;;4990607;28;20284;-59
2022/05/15 04:42:33;;;;;;;16.70;15.10;;;16.30;69.70;;;;;;4990777;28;20233;-55
2022/05/15 04:45:03;;;;;;;16.75;15.18;;;16.30;69.60;;;;;;4990646;28;20201;-54
2022/05/15 04:47:34;;;;;;;18.33;16.60;;;16.40;69.50;;;;;;4990906;28;20287;-59
2022/05/15 04:50:04;;;;;;;16.60;15.00;;;16.40;69.40;;;;;;4990840;28;20244;-58
2022/05/15 04:52:35;;;;;;;16.30;14.90;;;16.40;69.20;;;;;;4990640;28;20252;-57
2022/05/15 04:55:08;;;;;;;17.30;15.70;;;16.40;69.00;;;;;;4990267;28;20248;-55
2022/05/15 04:57:38;;;;;;;16.27;14.88;;;16.40;68.80;;;;;;4990894;28;20193;-58
2022/05/15 05:00:13;;;;;;;16.10;14.60;;;16.40;68.70;;;;;;4990691;28;20221;-53
2022/05/15 05:02:44;;;;;;;15.93;14.48;;;16.50;68.60;;;;;;4990504;28;20197;-53
2022/05/15 05:05:14;;;;;;;15.90;14.50;;;16.50;68.50;;;;;;4990738;28;20414;-54
2022/05/15 05:07:45;;;;;;;15.20;13.82;;;16.50;68.40;;;;;;4990397;28;20256;-60
2022/05/15 05:10:19;;;;;;;15.27;13.88;;;16.50;68.40;;;;;;4989999;28;20534;-57
2022/05/15 05:12:49;;;;;;;16.08;14.63;;;16.50;68.30;;;;;;4990629;28;20190;-57
2022/05/15 05:15:20;;;;;;;15.02;13.70;;;16.50;68.30;;;;;;4990726;28;20233;-57
2022/05/15 05:17:50;;;;;;;14.88;13.57;;;16.50;68.30;;;;;;4990630;28;20244;-59
2022/05/15 05:20:21;;;;;;;14.57;13.27;;;16.50;68.30;;;;;;4990640;28;20844;-53
2022/05/15 05:22:51;;;;;;;15.02;13.60;;;16.50;68.20;;;;;;5003149;23;20260;-60
2022/05/15 05:25:24;;;;;;;14.32;13.13;;;16.50;69.00;;;;;;4990228;28;20194;-60
2022/05/15 05:27:54;;;;;;;13.57;12.27;;;16.50;68.10;;;;;;4990235;28;20259;-59
2022/05/15 05:30:27;;;;;;;14.07;12.77;;;16.60;68.00;;;;;;4990457;28;20679;-60
2022/05/15 05:32:58;;;;;;;14.52;13.32;;;16.60;67.90;;;;;;4990229;28;20237;-60
2022/05/15 05:35:31;;;;;;;14.57;13.38;;;16.60;67.80;;;;;;4990237;28;20252;-59
2022/05/15 05:38:01;;;;;;;13.80;12.52;;;16.60;67.70;;;;;;4990013;28;20251;-60
2022/05/15 05:40:34;;;;;;;13.52;12.43;;;16.60;67.60;;;;;;4990017;28;20253;-59
2022/05/15 05:43:04;;;;;;;13.68;12.40;;;16.60;67.50;;;;;;4989939;28;20649;-59
2022/05/15 05:45:35;;;;;;;13.32;12.15;;;16.60;67.40;;;;;;4989981;28;20732;-60
2022/05/15 05:48:06;;;;;;;13.60;12.50;;;16.60;67.30;;;;;;4985944;28;20193;-60
2022/05/15 05:50:37;;;;;;;13.07;11.88;;;16.60;67.20;;;;;;4970442;28;20218;-60
2022/05/15 05:53:09;;;;;;;13.23;12.02;;;16.60;67.20;;;;;;4970600;28;20659;-60
2022/05/15 05:55:42;;;;;;;13.70;12.48;;;16.60;67.20;;;;;;4981345;28;20194;-60
2022/05/15 05:58:12;;;;;;;13.00;11.75;;;16.60;67.20;;;;;;4990051;28;20202;-60
2022/05/15 06:00:43;;;;;;;13.25;12.13;;;16.60;67.20;;;;;;4989680;28;20271;-60
2022/05/15 06:06:00;;;;;;;12.35;11.27;;;16.60;67.10;;;;;;4989884;28;20617;-60
2022/05/15 06:08:31;;;;;;;12.20;11.20;;;16.60;67.00;;;;;;4989805;28;20600;-60
2022/05/15 06:11:04;;;;;;;12.65;11.55;;;16.60;66.90;;;;;;4989423;28;20241;-60
2022/05/15 06:13:34;;;;;;;11.95;10.95;;;16.60;66.90;;;;;;4990775;28;20267;-60
2022/05/15 06:16:05;;;;;;;12.38;11.27;;;16.60;66.80;;;;;;4993622;28;20283;-60
2022/05/15 06:18:36;;;;;;;12.15;11.05;;;16.60;66.70;;;;;;4993255;28;20206;-59
2022/05/15 06:21:07;;;;;;;11.45;10.45;;;16.70;66.80;;;;;;4993417;28;20221;-59
2022/05/15 06:23:37;;;;;;;12.02;11.00;;;16.60;66.70;;;;;;4994010;28;20624;-60
2022/05/15 06:26:09;;;;;;;11.25;10.23;;;16.70;66.80;;;;;;4993007;28;20205;-59
2022/05/15 06:28:40;;;;;;;10.77;9.88;;;16.70;66.70;;;;;;4993501;28;20260;-59
2022/05/15 06:31:11;;;;;;;12.23;11.13;;;16.70;66.60;;;;;;4994198;28;20256;-59
2022/05/15 06:33:41;;;;;;;11.40;10.40;;;16.70;66.60;;;;;;4993103;28;20685;-59
2022/05/15 06:36:12;;;;;;;10.85;9.95;;;16.70;66.60;;;;;;5002421;28;20559;-59
2022/05/15 06:38:42;;;;;;;11.48;10.48;;;16.60;66.50;;;;;;5012635;28;20599;-59
2022/05/15 06:41:15;;;;;;;10.73;9.82;;;16.60;66.50;;;;;;4998664;28;20217;-59
2022/05/15 06:43:46;;;;;;;10.68;9.77;;;16.60;66.40;;;;;;4992235;28;20202;-59
2022/05/15 06:46:19;;;;;;;10.90;9.90;;;16.70;66.50;;;;;;4992651;28;20209;-59
2022/05/15 06:48:50;;;;;;;10.90;10.00;;;16.70;66.50;;;;;;5005741;28;20660;-60
2022/05/15 06:51:23;;;;;;;10.25;9.43;;;16.70;66.50;;;;;;5012452;28;20359;-59
2022/05/15 06:53:55;;;;;;;10.55;9.70;;;16.60;66.30;;;;;;5012349;28;20303;-59
2022/05/15 06:59:13;;;;;;;10.60;9.70;;;16.70;66.30;;;;;;4992884;28;20223;-59
2022/05/15 07:01:44;;;;;;;9.75;8.82;;;16.70;66.20;;;;;;4992970;28;20279;-60
2022/05/15 07:04:14;;;;;;;9.73;8.93;;;16.70;66.20;;;;;;4992758;28;20193;-60
2022/05/15 07:06:45;;;;;;;9.65;8.85;;;16.70;66.30;;;;;;4992846;28;20206;-60
2022/05/15 07:09:16;;;;;;;10.02;9.13;;;16.70;66.20;;;;;;4992744;28;20221;-60
2022/05/15 07:11:48;;;;;;;9.85;9.05;;;16.70;66.10;;;;;;4992262;28;20271;-60
2022/05/15 07:14:21;;;;;;;9.63;8.82;;;16.70;66.10;;;;;;4992373;28;20229;-60
2022/05/15 07:16:52;;;;;;;9.23;8.43;;;16.70;66.00;;;;;;4992543;28;20197;-60
2022/05/15 07:19:22;;;;;;;10.45;9.55;;;16.70;66.00;;;;;;4992105;28;20276;-59
2022/05/15 07:21:53;;;;;;;10.27;9.30;;;16.70;66.10;;;;;;4992111;28;20259;-60
2022/05/15 07:24:24;;;;;;;8.85;8.05;;;16.70;66.10;;;;;;4997720;28;20672;-59
2022/05/15 07:26:56;;;;;;;9.05;8.25;;;16.60;66.00;;;;;;4994304;28;20211;-59
2022/05/15 07:29:27;;;;;;;9.75;8.85;;;16.70;66.10;;;;;;4991975;28;20253;-59
2022/05/15 07:31:58;;;;;;;9.20;8.40;;;16.70;66.00;;;;;;4991817;28;20202;-60
2022/05/15 07:34:28;;;;;;;9.18;8.38;;;16.70;66.10;;;;;;4991733;28;20264;-60
2022/05/15 07:36:59;;;;;;;9.05;8.25;;;16.70;66.20;;;;;;4992016;28;20203;-59
2022/05/15 07:39:29;;;;;;;9.13;8.43;;;16.70;66.10;;;;;;4992043;28;20217;-60
2022/05/15 07:42:02;;;;;;;9.00;8.20;;;16.70;66.00;;;;;;4991778;28;20197;-60
2022/05/15 07:44:32;;;;;;;8.90;8.10;;;16.70;66.00;;;;;;4991942;28;20662;-60
2022/05/15 07:47:04;;;;;;;8.75;8.05;;;16.70;65.90;;;;;;4992105;28;20204;-60
2022/05/15 07:49:35;;;;;;;8.77;8.07;;;16.70;65.90;;;;;;4991563;28;20213;-60
2022/05/15 07:52:06;;;;;;;8.98;8.20;;;16.70;65.70;;;;;;4990990;28;20244;-59
2022/05/15 07:54:37;;;;;;;9.18;8.38;;;16.70;65.70;;;;;;4991368;28;20309;-59
2022/05/15 07:57:13;;;;;;;9.32;8.52;;;16.70;65.70;;;;;;4974427;28;20198;-59
2022/05/15 07:59:44;;;;;;;8.65;7.95;;;16.70;65.60;;;;;;4991587;28;20217;-59
2022/05/15 08:02:14;;;;;;;8.63;7.88;;;16.70;65.60;;;;;;4991611;28;20257;-59
2022/05/15 08:10:18;;;;;;;8.63;7.85;;;16.70;65.70;;;;;;4990711;28;20217;-59
2022/05/15 08:12:50;;;;;;;8.27;7.57;;;16.70;65.70;;;;;;4991255;28;20205;-60
2022/05/15 08:15:21;;;;;;;8.18;7.47;;;16.70;65.70;;;;;;4990902;28;20217;-59
2022/05/15 08:17:52;;;;;;;7.78;7.15;;;16.70;65.70;;;;;;4991115;28;20198;-59
2022/05/15 08:25:56;;;;;;;7.70;7.10;;;16.70;65.60;;;;;;5003278;28;20227;-58
2022/05/15 08:28:28;;;;;;;7.82;7.22;;;16.70;65.50;;;;;;4990852;28;20194;-59
2022/05/15 08:30:59;;;;;;;8.25;7.45;;;16.70;65.50;;;;;;4990789;28;20272;-59
2022/05/15 08:33:30;;;;;;;8.60;7.90;;;16.70;65.50;;;;;;4990949;28;20193;-59
2022/05/15 08:36:01;;;;;;;8.00;7.30;;;16.70;65.40;;;;;;4990564;28;20225;-60
2022/05/15 08:38:31;;;;;;;7.45;6.63;;;16.70;65.40;;;;;;4990003;28;20221;-59
2022/05/15 08:41:05;;;;;;;7.90;7.15;;;16.70;65.40;;;;;;4996706;28;20295;-60
2022/05/15 08:43:45;;;;;;;7.68;7.03;;;16.70;65.30;;;;;;5010209;28;20648;-60
2022/05/15 08:46:32;;;;;;;7.65;7.05;;;16.70;65.40;;;;;;5010403;28;20250;-59
2022/05/15 08:49:09;;;;;;;7.85;7.25;;;16.70;65.40;;;;;;5010100;28;20204;-59
2022/05/15 08:51:40;;;;;;;7.30;6.70;;;16.70;65.40;;;;;;5010361;28;20196;-59
2022/05/15 08:54:13;;;;;;;7.65;6.95;;;16.70;65.40;;;;;;5010210;28;20248;-59
2022/05/15 08:56:50;;;;;;;7.20;6.60;;;16.70;65.50;;;;;;4999282;28;20197;-59
2022/05/15 08:59:32;;;;;;;7.40;6.80;;;16.70;65.50;;;;;;4990539;28;20217;-59
2022/05/15 09:02:04;;;;;;;7.55;6.95;;;16.70;65.40;;;;;;4990904;28;20229;-59
2022/05/15 09:04:35;;;;;;;7.40;6.80;;;16.70;65.40;;;;;;4990611;28;20248;-59
2022/05/15 09:07:16;;;;;;;7.35;6.75;;;16.70;65.50;;;;;;4995496;28;20208;-58
2022/05/15 09:09:56;;;;;;;7.55;6.95;;;16.70;65.40;;;;;;5005790;28;20209;-58
2022/05/15 09:12:28;;;;;;;6.68;6.18;;;16.70;65.40;;;;;;5005929;28;20641;-59
2022/05/15 09:15:06;;;;;;;6.93;6.38;;;16.70;65.30;;;;;;5008153;28;20296;-59
2022/05/15 09:17:46;;;;;;;7.15;6.55;;;16.70;65.30;;;;;;5008557;28;20197;-58
2022/05/15 09:20:21;;;;;;;6.68;6.18;;;16.70;65.30;;;;;;5008614;28;20244;-59
2022/05/15 09:23:00;;;;;;;7.32;6.75;;;16.70;65.30;;;;;;5008893;28;20204;-59
2022/05/15 09:25:36;;;;;;;6.70;6.20;;;16.70;65.10;;;;;;5008795;28;20246;-59
2022/05/15 09:28:09;;;;;;;7.35;6.75;;;16.70;65.10;;;;;;5007004;28;20188;-59
2022/05/15 09:30:43;;;;;;;7.03;6.43;;;16.70;65.20;;;;;;5007986;28;20212;-59
2022/05/15 09:33:25;;;;;;;6.97;6.40;;;16.70;65.20;;;;;;5007792;28;20275;-59
2022/05/15 09:36:18;;;;;;;7.43;6.82;;;16.70;65.20;;;;;;5008367;28;20228;-59
2022/05/15 09:38:49;;;;;;;6.75;6.25;;;16.70;66.00;;;;;;5008142;28;20201;-59
2022/05/15 09:44:09;;;;;;;6.68;6.07;;;16.70;65.20;;;;;;5008049;28;20356;-59
2022/05/15 09:46:42;;;;;;;6.75;6.22;;;16.70;65.20;;;;;;5007855;28;20193;-59
2022/05/15 09:49:24;;;;;;;6.80;6.30;;;16.70;65.20;;;;;;5009880;28;20251;-59
2022/05/15 09:51:57;;;;;;;6.40;5.90;;;16.70;65.20;;;;;;5011964;28;20570;-59
2022/05/15 09:54:43;;;;;;;6.47;5.97;;;16.70;65.10;;;;;;5012423;28;20189;-59
2022/05/15 09:57:18;;;;;;;6.63;6.13;;;16.70;65.10;;;;;;5011719;28;20553;-59
2022/05/15 10:00:08;;;;;;;6.43;5.93;;;16.70;65.00;;;;;;5009025;28;20224;-59
2022/05/15 10:02:46;;;;;;;7.10;6.50;;;16.70;65.00;;;;;;5011279;28;20259;-59
2022/05/15 10:05:22;;;;;;;6.75;6.13;;;16.70;65.00;;;;;;5011704;28;20727;-59
2022/05/15 10:08:03;;;;;;;6.93;6.25;;;16.80;65.00;;;;;;5011552;28;20228;-60
2022/05/15 10:10:36;;;;;;;6.45;5.95;;;16.70;64.90;;;;;;5011084;28;20782;-59
2022/05/15 10:13:10;;;;;;;6.82;6.22;;;16.70;64.90;;;;;;5011078;28;20193;-58
2022/05/15 10:15:44;;;;;;;6.22;5.63;;;16.70;64.90;;;;;;5010811;28;20224;-59
2022/05/15 10:18:25;;;;;;;6.97;6.35;;;16.70;64.90;;;;;;5010775;28;20189;-58
2022/05/15 10:20:57;;;;;;;6.43;5.90;;;16.70;65.00;;;;;;5011508;28;20266;-59
2022/05/15 10:23:30;;;;;;;6.80;6.25;;;16.70;65.00;;;;;;5012548;28;20583;-59
2022/05/15 10:26:03;;;;;;;5.90;5.40;;;16.70;65.10;;;;;;5011206;28;20189;-59
2022/05/15 10:28:41;;;;;;;6.78;6.18;;;16.70;65.10;;;;;;5009456;28;20193;-59
2022/05/15 10:31:19;;;;;;;5.70;5.25;;;16.70;65.00;;;;;;5009679;28;20213;-59
2022/05/15 10:33:54;;;;;;;5.72;5.32;;;16.70;65.80;;;;;;5003567;28;20252;-58
2022/05/15 10:37:01;;;;;;;6.68;6.07;;;16.80;65.00;;;;;;4994219;28;20233;-59
2022/05/15 10:39:38;;;;;;;6.07;5.57;;;16.80;65.00;;;;;;4974159;28;20232;-58
2022/05/15 10:42:22;;;;;;;6.15;5.65;;;16.80;64.90;;;;;;4987861;28;20224;-59
2022/05/15 10:45:12;;;;;;;5.55;5.15;;;16.80;64.80;;;;;;4992901;28;20271;-58
2022/05/15 10:47:55;;;;;;;5.72;5.22;;;16.80;64.80;;;;;;4992834;28;20189;-59
2022/05/15 10:50:32;;;;;;;5.43;5.03;;;16.80;64.80;;;;;;4992688;28;20268;-59
2022/05/15 10:59:20;;;;;;;6.18;5.68;;;16.80;64.70;;;;;;4992850;28;20780;-59
2022/05/15 11:02:02;;;;;;;5.13;4.72;;;16.80;64.70;;;;;;4992812;28;20193;-59
2022/05/15 11:04:45;;;;;;;6.40;5.53;;;16.80;64.80;;;;;;4992321;28;20193;-60
2022/05/15 11:07:24;;;;;;;5.63;5.18;;;16.80;64.90;;;;;;4992108;28;20201;-59
2022/05/15 11:10:07;;;;;;;5.65;5.25;;;16.80;65.00;;;;;;4992096;28;20267;-59
2022/05/15 11:12:47;;;;;;;5.80;5.30;;;16.80;65.00;;;;;;4992634;28;20225;-59
2022/05/15 11:15:34;;;;;;;5.85;5.35;;;16.80;65.00;;;;;;4992706;28;20224;-59
2022/05/15 11:18:20;;;;;;;4.93;4.53;;;16.80;65.00;;;;;;4992688;28;20198;-59
2022/05/15 11:20:54;;;;;;;4.97;4.57;;;16.80;65.00;;;;;;4992406;28;20682;-59
2022/05/15 11:23:31;;;;;;;4.78;4.38;;;16.80;64.90;;;;;;4992823;28;20233;-59
2022/05/15 11:26:09;;;;;;;5.40;4.90;;;16.80;64.90;;;;;;5010652;28;20239;-59
2022/05/15 11:28:43;;;;;;;4.95;4.55;;;16.80;64.90;;;;;;5011647;28;20201;-60
2022/05/15 11:31:18;;;;;;;5.00;4.60;;;16.80;64.90;;;;;;5011645;28;20219;-59
2022/05/15 11:34:02;;;;;;;4.85;4.35;;;16.80;64.80;;;;;;5007568;28;20189;-59
2022/05/15 11:36:38;;;;;;;5.13;4.63;;;16.80;64.90;;;;;;4992062;28;20225;-59
2022/05/15 11:39:27;;;;;;;4.85;4.45;;;16.80;64.80;;;;;;4992276;28;20201;-59
2022/05/15 11:42:17;;;;;;;4.65;4.35;;;16.80;64.80;;;;;;4991799;28;20285;-59
2022/05/15 11:44:49;;;;;;;4.80;4.40;;;16.80;64.90;;;;;;4992153;28;20197;-59
2022/05/15 11:47:29;;;;;;;4.90;4.50;;;16.80;64.80;;;;;;4991697;28;20205;-59
2022/05/15 11:50:10;;;;;;;5.60;5.05;;;16.80;65.00;;;;;;4991276;28;20220;-58
2022/05/15 11:52:45;;;;;;;4.32;4.03;;;16.80;65.00;;;;;;4991505;28;20197;-59
2022/05/15 11:55:52;;;;;;;4.10;3.80;;;16.80;65.10;;;;;;4991425;28;20224;-60
2022/05/15 11:58:32;;;;;;;4.32;3.92;;;16.80;65.10;;;;;;4991796;28;20416;-60
2022/05/15 12:01:06;;;;;;;4.28;3.97;;;16.80;65.10;;;;;;4983886;28;20210;-59
2022/05/15 12:03:57;;;;;;;4.05;3.75;;;16.80;65.10;;;;;;4972939;28;20202;-59
2022/05/15 12:06:31;;;;;;;3.85;3.55;;;16.80;65.10;;;;;;4991561;28;20229;-59
2022/05/15 12:09:30;;;;;;;4.03;3.63;;;16.80;65.00;;;;;;4991754;28;20281;-59
2022/05/15 12:12:37;;;;;;;4.10;3.80;;;16.80;65.00;;;;;;4990822;28;20201;-59
2022/05/15 12:15:13;;;;;;;3.63;3.33;;;16.80;64.90;;;;;;4991019;28;20193;-59
2022/05/15 12:17:45;;;;;;;3.50;3.20;;;16.80;64.90;;;;;;4991114;28;20255;-59
2022/05/15 12:20:19;;;;;;;3.95;3.65;;;16.80;64.90;;;;;;4990852;28;20225;-58
2022/05/15 12:22:54;;;;;;;4.22;3.83;;;16.80;64.90;;;;;;4991811;28;20209;-58
2022/05/15 12:25:30;;;;;;;4.78;3.92;;;16.80;65.00;;;;;;5004482;28;20200;-58
2022/05/15 12:30:57;;;;;;;3.33;3.03;;;16.80;65.10;;;;;;4990954;28;20215;-57
2022/05/15 12:33:30;;;;;;;3.53;3.22;;;16.80;65.20;;;;;;4990682;28;20197;-57
2022/05/15 12:36:01;;;;;;;3.58;3.28;;;16.80;65.30;;;;;;4990388;28;20696;-58
2022/05/15 12:38:31;;;;;;;3.10;2.65;;;16.80;65.30;;;;;;4990788;28;20248;-58
2022/05/15 12:41:04;;;;;;;3.92;3.00;;;16.80;65.40;;;;;;4990521;28;20316;-57
2022/05/15 12:43:37;;;;;;;3.38;3.00;;;16.80;65.40;;;;;;4991073;28;20736;-57
2022/05/15 12:46:09;;;;;;;3.47;3.17;;;16.80;65.30;;;;;;4990956;28;20260;-58
2022/05/15 12:48:41;;;;;;;3.20;2.90;;;16.80;65.30;;;;;;4993220;28;20257;-59
2022/05/15 12:51:13;;;;;;;3.70;3.40;;;16.80;65.30;;;;;;4990687;28;20610;-59
2022/05/15 12:53:45;;;;;;;3.55;3.25;;;16.90;65.30;;;;;;4990677;28;20216;-59
2022/05/15 12:56:20;;;;;;;3.42;3.13;;;16.80;65.20;;;;;;4990582;28;20771;-59
2022/05/15 12:58:52;;;;;;;4.22;3.33;;;16.80;65.10;;;;;;4990771;28;20652;-59
2022/05/15 13:01:28;;;;;;;3.50;3.20;;;16.90;65.10;;;;;;4990925;28;20418;-59
2022/05/15 13:04:00;;;;;;;2.90;2.70;;;16.80;65.10;;;;;;4990094;28;20205;-59
2022/05/15 13:06:36;;;;;;;3.40;3.10;;;16.80;65.10;;;;;;4990399;28;20201;-59
2022/05/15 13:09:09;;;;;;;3.13;2.80;;;16.80;65.10;;;;;;4990164;28;20197;-59
2022/05/15 13:11:46;;;;;;;3.13;2.83;;;16.80;65.10;;;;;;4990127;28;20202;-59
2022/05/15 13:14:23;;;;;;;2.85;2.60;;;16.80;65.20;;;;;;4990639;28;20201;-59
2022/05/15 13:16:57;;;;;;;2.63;2.20;;;16.80;65.30;;;;;;4990534;28;20228;-59
2022/05/15 13:19:31;;;;;;;2.97;2.42;;;16.90;65.40;;;;;;4989943;28;20557;-59
2022/05/15 13:22:03;;;;;;;2.55;2.35;;;16.80;65.40;;;;;;4990217;28;20196;-57
2022/05/15 13:24:35;;;;;;;2.90;2.60;;;16.90;65.50;;;;;;5000548;28;20204;-58
2022/05/15 13:27:06;;;;;;;2.88;2.55;;;16.90;65.60;;;;;;5014446;28;20712;-58
2022/05/15 13:29:39;;;;;;;2.97;2.78;;;16.90;65.50;;;;;;5014135;28;20217;-58
2022/05/15 13:32:17;;;;;;;2.92;2.72;;;16.90;65.50;;;;;;5014422;28;20250;-59
2022/05/15 13:34:50;;;;;;;2.90;2.60;;;16.90;65.50;;;;;;5007603;28;20196;-57
2022/05/15 13:37:32;;;;;;;2.50;2.30;;;16.90;65.40;;;;;;4994412;28;20224;-59
2022/05/15 13:45:51;;;;;;;2.42;2.22;;;16.90;65.40;;;;;;4988757;28;20197;-59
2022/05/15 13:48:23;;;;;;;2.83;2.05;;;16.90;65.40;;;;;;4994178;28;20197;-59
2022/05/15 13:50:56;;;;;;;2.53;2.33;;;16.90;65.40;;;;;;4993782;28;20217;-59